To NAV CANADA Home Page Login to a new session Search on AWWS site Feedback and Comments Disclaimer Vers la page française équivalente Tips FAQ What's new on the site To the Forecasts and Observations / NOTAM section To "File a Flight Plan" website Publications and other links Update of the User's profile FIC Telephone Numbers My Weather Data Folder Route Weather Data Regional Weather Data Local Weather Data To the Forecasts and Observations / NOTAM section
Request Generated 02/11/2016 at 14:47:47 UTC . Weather information available at that time is displayed.

METAR/TAF

WHITEHORSE/ERIK NIELSEN INTL/YT    

METAR CYXY 111400Z 21009G16KT 15SM DRSN FEW006 SCT170 M02/M03 A2982
RMK ST1AC3 ST TR SLP141=
METAR CYXY 111300Z 17015KT 15SM DRSN FEW065 SCT170 M02/M03 A2981 RMK
SC2AC2 SLP137=
METAR CYXY 111200Z 15019G25KT 15SM DRSN FEW013 BKN170 M01/M03 A2979
RMK SC1AC6 SLP130=

TAF CYXY 111142Z 1112/1124 17015G25KT P6SM SCT020 BKN250 TEMPO
1112/1124 BKN020 OVC250
RMK NXT FCST BY 111800Z=
Your time UTC time
Weather data provided by Environment Canada and NAV CANADA